sensor_id;sensor_type;location;lat;lon;timestamp;pressure;altitude;pressure_sealevel;temperature;humidity
1926;BME280;964;42.606;23.588;2022-07-10T00:02:14;94401.34;;;30.44;40.00
1926;BME280;964;42.606;23.588;2022-07-10T00:04:40;94409.94;;;30.83;39.70
1926;BME280;964;42.606;23.588;2022-07-10T00:07:07;94399.72;;;31.03;39.22
1926;BME280;964;42.606;23.588;2022-07-10T00:09:34;94395.41;;;30.25;40.23
1926;BME280;964;42.606;23.588;2022-07-10T00:12:01;94389.19;;;30.25;40.25
1926;BME280;964;42.606;23.588;2022-07-10T00:14:27;94389.66;;;30.95;38.98
1926;BME280;964;42.606;23.588;2022-07-10T00:16:54;94382.91;;;31.16;38.38
1926;BME280;964;42.606;23.588;2022-07-10T00:19:22;94381.09;;;31.44;37.93
1926;BME280;964;42.606;23.588;2022-07-10T00:21:49;94383.38;;;31.51;37.62
1926;BME280;964;42.606;23.588;2022-07-10T00:24:15;94383.00;;;31.64;37.54
1926;BME280;964;42.606;23.588;2022-07-10T00:26:42;94374.31;;;31.34;38.11
1926;BME280;964;42.606;23.588;2022-07-10T00:29:09;94377.75;;;31.60;37.72
1926;BME280;964;42.606;23.588;2022-07-10T00:31:35;94367.38;;;31.76;37.65
1926;BME280;964;42.606;23.588;2022-07-10T00:34:02;94375.13;;;31.40;38.14
1926;BME280;964;42.606;23.588;2022-07-10T00:36:30;94369.03;;;31.25;38.42
1926;BME280;964;42.606;23.588;2022-07-10T00:38:58;94372.31;;;31.29;38.28
1926;BME280;964;42.606;23.588;2022-07-10T00:41:25;94365.63;;;31.41;37.93
1926;BME280;964;42.606;23.588;2022-07-10T00:43:52;94364.25;;;31.20;38.55
1926;BME280;964;42.606;23.588;2022-07-10T00:46:19;94357.88;;;31.34;37.70
1926;BME280;964;42.606;23.588;2022-07-10T00:48:47;94359.81;;;30.97;38.54
1926;BME280;964;42.606;23.588;2022-07-10T00:51:15;94354.44;;;31.08;38.49
1926;BME280;964;42.606;23.588;2022-07-10T00:53:44;94358.41;;;31.38;37.74
1926;BME280;964;42.606;23.588;2022-07-10T00:56:11;94361.44;;;31.09;38.28
1926;BME280;964;42.606;23.588;2022-07-10T00:58:39;94352.06;;;31.21;38.13
1926;BME280;964;42.606;23.588;2022-07-10T01:01:06;94349.53;;;30.86;38.81
1926;BME280;964;42.606;23.588;2022-07-10T01:03:33;94347.38;;;30.96;38.57
1926;BME280;964;42.606;23.588;2022-07-10T01:06:00;94355.66;;;31.01;38.28
1926;BME280;964;42.606;23.588;2022-07-10T01:08:27;94350.22;;;31.07;38.34
1926;BME280;964;42.606;23.588;2022-07-10T01:10:55;94359.09;;;30.71;38.54
1926;BME280;964;42.606;23.588;2022-07-10T01:13:22;94344.63;;;30.64;38.72
1926;BME280;964;42.606;23.588;2022-07-10T01:15:49;94351.69;;;30.77;38.58
1926;BME280;964;42.606;23.588;2022-07-10T01:18:18;94354.31;;;30.91;38.46
1926;BME280;964;42.606;23.588;2022-07-10T01:20:44;94349.44;;;30.75;38.67
1926;BME280;964;42.606;23.588;2022-07-10T01:23:13;94343.78;;;31.10;38.32
1926;BME280;964;42.606;23.588;2022-07-10T01:25:39;94349.03;;;30.56;38.97
1926;BME280;964;42.606;23.588;2022-07-10T01:28:06;94345.59;;;30.61;39.15
1926;BME280;964;42.606;23.588;2022-07-10T01:30:33;94346.03;;;30.54;39.28
1926;BME280;964;42.606;23.588;2022-07-10T01:32:59;94342.47;;;30.74;38.99
1926;BME280;964;42.606;23.588;2022-07-10T01:35:26;94337.31;;;30.82;38.88
1926;BME280;964;42.606;23.588;2022-07-10T01:37:53;94334.50;;;31.02;38.24
1926;BME280;964;42.606;23.588;2022-07-10T01:40:21;94330.69;;;30.94;38.34
1926;BME280;964;42.606;23.588;2022-07-10T01:42:48;94330.16;;;31.21;37.96
1926;BME280;964;42.606;23.588;2022-07-10T01:45:16;94330.09;;;31.10;37.98
1926;BME280;964;42.606;23.588;2022-07-10T01:47:43;94327.06;;;31.08;38.17
1926;BME280;964;42.606;23.588;2022-07-10T01:50:10;94342.03;;;31.07;38.21
1926;BME280;964;42.606;23.588;2022-07-10T01:52:37;94321.59;;;31.08;38.23
1926;BME280;964;42.606;23.588;2022-07-10T01:55:06;94332.34;;;30.86;38.77
1926;BME280;964;42.606;23.588;2022-07-10T01:57:34;94330.19;;;30.38;39.29
1926;BME280;964;42.606;23.588;2022-07-10T02:00:01;94324.22;;;30.40;39.18
1926;BME280;964;42.606;23.588;2022-07-10T02:02:27;94331.31;;;30.78;38.86
1926;BME280;964;42.606;23.588;2022-07-10T02:04:54;94337.03;;;30.48;39.33
1926;BME280;964;42.606;23.588;2022-07-10T02:07:20;94330.25;;;31.01;38.41
1926;BME280;964;42.606;23.588;2022-07-10T02:09:47;94330.97;;;30.96;38.28
1926;BME280;964;42.606;23.588;2022-07-10T02:12:15;94334.22;;;30.69;38.67
1926;BME280;964;42.606;23.588;2022-07-10T02:14:43;94330.09;;;31.10;38.08
1926;BME280;964;42.606;23.588;2022-07-10T02:17:10;94331.84;;;30.82;38.02
1926;BME280;964;42.606;23.588;2022-07-10T02:19:37;94329.78;;;30.25;39.37
1926;BME280;964;42.606;23.588;2022-07-10T02:22:04;94328.28;;;30.44;39.04
1926;BME280;964;42.606;23.588;2022-07-10T02:24:30;94325.41;;;30.85;38.34
1926;BME280;964;42.606;23.588;2022-07-10T02:26:57;94330.31;;;30.29;38.98
1926;BME280;964;42.606;23.588;2022-07-10T02:29:24;94326.69;;;30.12;39.19
1926;BME280;964;42.606;23.588;2022-07-10T02:31:52;94325.94;;;30.37;38.66
1926;BME280;964;42.606;23.588;2022-07-10T02:34:19;94325.22;;;30.16;39.00
1926;BME280;964;42.606;23.588;2022-07-10T02:36:46;94332.16;;;30.12;39.27
1926;BME280;964;42.606;23.588;2022-07-10T02:39:12;94333.53;;;30.02;39.47
1926;BME280;964;42.606;23.588;2022-07-10T02:41:39;94332.38;;;30.34;38.78
1926;BME280;964;42.606;23.588;2022-07-10T02:44:06;94343.31;;;29.74;39.97
1926;BME280;964;42.606;23.588;2022-07-10T02:46:33;94334.81;;;30.32;39.10
1926;BME280;964;42.606;23.588;2022-07-10T02:49:01;94332.75;;;30.73;38.13
1926;BME280;964;42.606;23.588;2022-07-10T02:51:29;94335.28;;;30.77;37.97
1926;BME280;964;42.606;23.588;2022-07-10T02:53:56;94337.56;;;30.52;38.42
1926;BME280;964;42.606;23.588;2022-07-10T02:56:23;94336.03;;;30.51;38.36
1926;BME280;964;42.606;23.588;2022-07-10T02:58:50;94334.63;;;30.87;38.19
1926;BME280;964;42.606;23.588;2022-07-10T03:01:17;94334.41;;;30.39;38.90
1926;BME280;964;42.606;23.588;2022-07-10T03:03:44;94336.88;;;30.37;39.14
1926;BME280;964;42.606;23.588;2022-07-10T03:06:12;94342.25;;;30.78;38.19
1926;BME280;964;42.606;23.588;2022-07-10T03:08:39;94343.22;;;30.75;38.18
1926;BME280;964;42.606;23.588;2022-07-10T03:11:07;94342.19;;;30.46;38.45
1926;BME280;964;42.606;23.588;2022-07-10T03:13:33;94344.50;;;30.53;38.66
1926;BME280;964;42.606;23.588;2022-07-10T03:16:00;94348.78;;;30.86;38.30
1926;BME280;964;42.606;23.588;2022-07-10T03:18:28;94347.53;;;30.55;38.27
1926;BME280;964;42.606;23.588;2022-07-10T03:20:54;94340.28;;;30.78;38.08
1926;BME280;964;42.606;23.588;2022-07-10T03:23:23;94344.59;;;30.90;37.81
1926;BME280;964;42.606;23.588;2022-07-10T03:25:51;94347.41;;;30.70;38.19
1926;BME280;964;42.606;23.588;2022-07-10T03:28:18;94347.03;;;30.57;38.90
1926;BME280;964;42.606;23.588;2022-07-10T03:30:44;94353.63;;;30.71;38.52
1926;BME280;964;42.606;23.588;2022-07-10T03:33:11;94349.97;;;30.53;39.15
1926;BME280;964;42.606;23.588;2022-07-10T03:35:38;94350.91;;;30.45;39.20
1926;BME280;964;42.606;23.588;2022-07-10T03:38:05;94352.84;;;30.18;39.39
1926;BME280;964;42.606;23.588;2022-07-10T03:40:33;94340.63;;;30.40;39.08
1926;BME280;964;42.606;23.588;2022-07-10T03:43:02;94346.03;;;30.54;38.84
1926;BME280;964;42.606;23.588;2022-07-10T03:45:29;94342.78;;;30.30;39.33
1926;BME280;964;42.606;23.588;2022-07-10T03:47:55;94333.66;;;29.73;40.13
1926;BME280;964;42.606;23.588;2022-07-10T03:50:22;94334.84;;;29.51;40.91
1926;BME280;964;42.606;23.588;2022-07-10T03:52:49;94330.72;;;29.96;40.41
1926;BME280;964;42.606;23.588;2022-07-10T03:55:15;94342.81;;;29.90;40.66
1926;BME280;964;42.606;23.588;2022-07-10T03:57:44;94342.78;;;29.69;41.03
1926;BME280;964;42.606;23.588;2022-07-10T04:00:19;94338.41;;;29.78;41.12
1926;BME280;964;42.606;23.588;2022-07-10T04:02:47;94340.56;;;29.88;40.83
1926;BME280;964;42.606;23.588;2022-07-10T04:05:14;94324.72;;;29.92;40.48
1926;BME280;964;42.606;23.588;2022-07-10T04:07:40;94327.09;;;29.85;40.79
1926;BME280;964;42.606;23.588;2022-07-10T04:10:08;94322.09;;;29.83;40.86
1926;BME280;964;42.606;23.588;2022-07-10T04:12:35;94330.63;;;30.11;40.38
1926;BME280;964;42.606;23.588;2022-07-10T04:15:03;94325.84;;;29.65;41.16
1926;BME280;964;42.606;23.588;2022-07-10T04:17:30;94326.69;;;30.12;40.18
1926;BME280;964;42.606;23.588;2022-07-10T04:19:58;94324.81;;;30.49;39.57
1926;BME280;964;42.606;23.588;2022-07-10T04:22:25;94314.00;;;30.60;39.52
1926;BME280;964;42.606;23.588;2022-07-10T04:24:52;94321.03;;;30.67;38.97
1926;BME280;964;42.606;23.588;2022-07-10T04:27:18;94319.13;;;30.79;38.87
1926;BME280;964;42.606;23.588;2022-07-10T04:29:45;94317.25;;;30.39;39.47
1926;BME280;964;42.606;23.588;2022-07-10T04:32:13;94324.81;;;30.49;39.56
1926;BME280;964;42.606;23.588;2022-07-10T04:34:40;94326.81;;;30.75;39.36
1926;BME280;964;42.606;23.588;2022-07-10T04:37:07;94316.84;;;31.03;39.08
1926;BME280;964;42.606;23.588;2022-07-10T04:39:34;94324.22;;;30.65;39.75
1926;BME280;964;42.606;23.588;2022-07-10T04:42:01;94322.66;;;30.85;39.15
1926;BME280;964;42.606;23.588;2022-07-10T04:44:28;94314.75;;;31.66;38.19
1926;BME280;964;42.606;23.588;2022-07-10T04:46:55;94320.75;;;31.28;38.70
1926;BME280;964;42.606;23.588;2022-07-10T04:49:23;94322.47;;;31.25;38.63
1926;BME280;964;42.606;23.588;2022-07-10T04:51:50;94317.56;;;31.35;37.93
1926;BME280;964;42.606;23.588;2022-07-10T04:54:17;94321.38;;;31.11;38.15
1926;BME280;964;42.606;23.588;2022-07-10T04:56:44;94329.81;;;30.77;39.17
1926;BME280;964;42.606;23.588;2022-07-10T04:59:11;94327.59;;;31.49;38.03
1926;BME280;964;42.606;23.588;2022-07-10T05:01:37;94318.75;;;31.28;38.17
1926;BME280;964;42.606;23.588;2022-07-10T05:04:04;94321.97;;;31.27;38.21
1926;BME280;964;42.606;23.588;2022-07-10T05:06:32;94315.75;;;31.26;38.09
1926;BME280;964;42.606;23.588;2022-07-10T05:08:59;94316.34;;;31.41;38.37
1926;BME280;964;42.606;23.588;2022-07-10T05:11:26;94322.03;;;31.38;37.89
1926;BME280;964;42.606;23.588;2022-07-10T05:13:53;94321.88;;;31.47;37.68
1926;BME280;964;42.606;23.588;2022-07-10T05:16:19;94313.84;;;31.38;38.44
1926;BME280;964;42.606;23.588;2022-07-10T05:18:46;94312.75;;;31.67;38.15
1926;BME280;964;42.606;23.588;2022-07-10T05:21:13;94307.13;;;31.87;37.84
1926;BME280;964;42.606;23.588;2022-07-10T05:23:41;94306.56;;;32.53;36.86
1926;BME280;964;42.606;23.588;2022-07-10T05:26:08;94301.06;;;32.47;37.05
1926;BME280;964;42.606;23.588;2022-07-10T05:28:35;94305.41;;;31.95;37.03
1926;BME280;964;42.606;23.588;2022-07-10T05:31:01;94304.78;;;32.33;36.64
1926;BME280;964;42.606;23.588;2022-07-10T05:33:28;94312.66;;;31.98;37.61
1926;BME280;964;42.606;23.588;2022-07-10T05:35:55;94317.84;;;31.42;37.71
1926;BME280;964;42.606;23.588;2022-07-10T05:38:22;94314.03;;;31.66;37.97
1926;BME280;964;42.606;23.588;2022-07-10T05:51:58;94309.16;;;31.07;38.23
1926;BME280;964;42.606;23.588;2022-07-10T05:54:25;94311.84;;;31.38;38.12
1926;BME280;964;42.606;23.588;2022-07-10T05:56:51;94317.00;;;31.25;38.76
1926;BME280;964;42.606;23.588;2022-07-10T05:59:18;94314.09;;;31.88;37.28
1926;BME280;964;42.606;23.588;2022-07-10T06:12:45;94326.94;;;30.60;39.41
1926;BME280;964;42.606;23.588;2022-07-10T06:15:12;94319.25;;;30.95;38.95
1926;BME280;964;42.606;23.588;2022-07-10T06:17:39;94324.16;;;30.86;39.13
1926;BME280;964;42.606;23.588;2022-07-10T06:20:06;94320.06;;;30.44;39.61
1926;BME280;964;42.606;23.588;2022-07-10T06:22:33;94315.75;;;31.26;38.57
1926;BME280;964;42.606;23.588;2022-07-10T06:25:01;94315.41;;;31.07;38.63
1926;BME280;964;42.606;23.588;2022-07-10T06:27:30;94321.22;;;31.26;38.47
1926;BME280;964;42.606;23.588;2022-07-10T06:30:00;94314.16;;;31.51;37.25
1926;BME280;964;42.606;23.588;2022-07-10T06:32:27;94322.44;;;31.20;38.23
1926;BME280;964;42.606;23.588;2022-07-10T06:34:54;94302.75;;;32.17;36.54
1926;BME280;964;42.606;23.588;2022-07-10T06:37:21;94303.56;;;32.45;35.94
1926;BME280;964;42.606;23.588;2022-07-10T06:39:48;94309.69;;;32.07;36.61
1926;BME280;964;42.606;23.588;2022-07-10T06:42:15;94321.28;;;31.37;37.89
1926;BME280;964;42.606;23.588;2022-07-10T06:44:43;94300.75;;;32.12;36.99
1926;BME280;964;42.606;23.588;2022-07-10T06:47:13;94302.91;;;31.91;36.86
1926;BME280;964;42.606;23.588;2022-07-10T06:49:57;94300.88;;;32.68;35.26
1926;BME280;964;42.606;23.588;2022-07-10T06:52:25;94304.06;;;32.49;35.87
1926;BME280;964;42.606;23.588;2022-07-10T06:54:52;94298.47;;;31.51;36.14
1926;BME280;964;42.606;23.588;2022-07-10T06:57:19;94296.88;;;31.82;36.71
1926;BME280;964;42.606;23.588;2022-07-10T06:59:46;94298.41;;;31.88;35.79
1926;BME280;964;42.606;23.588;2022-07-10T07:02:14;94287.13;;;32.90;35.20
1926;BME280;964;42.606;23.588;2022-07-10T07:04:41;94283.59;;;32.39;35.35
1926;BME280;964;42.606;23.588;2022-07-10T07:07:10;94286.34;;;32.50;35.46
1926;BME280;964;42.606;23.588;2022-07-10T07:09:37;94280.66;;;32.93;35.03
1926;BME280;964;42.606;23.588;2022-07-10T07:12:04;94282.91;;;33.00;34.90
1926;BME280;964;42.606;23.588;2022-07-10T07:14:31;94292.25;;;32.10;36.38
1926;BME280;964;42.606;23.588;2022-07-10T07:16:58;94288.84;;;32.48;35.27
1926;BME280;964;42.606;23.588;2022-07-10T07:19:30;94293.03;;;32.22;36.56
1926;BME280;964;42.606;23.588;2022-07-10T07:22:19;94289.63;;;32.66;34.92
1926;BME280;964;42.606;23.588;2022-07-10T07:25:05;94282.13;;;33.22;34.89
1926;BME280;964;42.606;23.588;2022-07-10T07:27:33;94285.38;;;32.98;34.98
1926;BME280;964;42.606;23.588;2022-07-10T07:30:03;94279.47;;;33.79;34.27
1926;BME280;964;42.606;23.588;2022-07-10T07:32:31;94286.66;;;33.93;33.74
1926;BME280;964;42.606;23.588;2022-07-10T07:35:00;94285.34;;;33.37;34.87
1926;BME280;964;42.606;23.588;2022-07-10T07:37:37;94283.06;;;33.46;34.20
1926;BME280;964;42.606;23.588;2022-07-10T07:40:06;94280.09;;;33.39;34.28
1926;BME280;964;42.606;23.588;2022-07-10T07:42:33;94282.41;;;33.98;33.65
1926;BME280;964;42.606;23.588;2022-07-10T07:44:59;94280.34;;;34.10;32.88
1926;BME280;964;42.606;23.588;2022-07-10T07:47:27;94279.09;;;34.05;32.99
1926;BME280;964;42.606;23.588;2022-07-10T07:49:54;94280.25;;;34.62;32.42
1926;BME280;964;42.606;23.588;2022-07-10T07:52:22;94291.41;;;33.93;33.05
1926;BME280;964;42.606;23.588;2022-07-10T07:54:49;94283.59;;;34.90;32.49
1926;BME280;964;42.606;23.588;2022-07-10T07:57:16;94282.84;;;34.89;31.91
1926;BME280;964;42.606;23.588;2022-07-10T07:59:43;94281.28;;;34.59;32.16
1926;BME280;964;42.606;23.588;2022-07-10T08:05:31;94280.31;;;35.70;31.45
1926;BME280;964;42.606;23.588;2022-07-10T08:11:21;94273.03;;;34.59;32.44
1926;BME280;964;42.606;23.588;2022-07-10T08:13:48;94271.69;;;35.30;31.45
1926;BME280;964;42.606;23.588;2022-07-10T08:16:14;94264.69;;;35.29;30.95
1926;BME280;964;42.606;23.588;2022-07-10T08:18:41;94274.13;;;34.80;32.20
1926;BME280;964;42.606;23.588;2022-07-10T08:21:08;94269.38;;;35.34;31.13
1926;BME280;964;42.606;23.588;2022-07-10T08:23:35;94252.47;;;35.92;30.82
1926;BME280;964;42.606;23.588;2022-07-10T08:26:01;94258.41;;;36.33;30.00
1926;BME280;964;42.606;23.588;2022-07-10T08:28:29;94255.00;;;36.27;30.55
1926;BME280;964;42.606;23.588;2022-07-10T08:30:56;94249.50;;;36.91;29.17
1926;BME280;964;42.606;23.588;2022-07-10T08:33:23;94249.88;;;37.14;27.55
1926;BME280;964;42.606;23.588;2022-07-10T08:35:49;94247.59;;;36.86;27.68
1926;BME280;964;42.606;23.588;2022-07-10T08:38:16;94251.25;;;37.07;28.65
1926;BME280;964;42.606;23.588;2022-07-10T08:40:44;94256.56;;;36.73;29.19
1926;BME280;964;42.606;23.588;2022-07-10T08:43:12;94242.88;;;37.39;27.47
1926;BME280;964;42.606;23.588;2022-07-10T08:45:40;94248.03;;;38.21;26.47
1926;BME280;964;42.606;23.588;2022-07-10T08:48:07;94253.59;;;37.16;26.76
1926;BME280;964;42.606;23.588;2022-07-10T08:50:38;94245.94;;;38.69;25.27
1926;BME280;964;42.606;23.588;2022-07-10T08:53:12;94249.88;;;39.43;24.74
1926;BME280;964;42.606;23.588;2022-07-10T08:55:39;94250.56;;;38.19;25.68
1926;BME280;964;42.606;23.588;2022-07-10T08:58:08;94256.91;;;38.07;26.85
1926;BME280;964;42.606;23.588;2022-07-10T09:00:34;94251.19;;;38.39;25.06
1926;BME280;964;42.606;23.588;2022-07-10T09:03:03;94255.34;;;37.59;26.79
1926;BME280;964;42.606;23.588;2022-07-10T09:05:30;94256.66;;;38.52;25.12
1926;BME280;964;42.606;23.588;2022-07-10T09:07:56;94248.56;;;38.54;25.45
1926;BME280;964;42.606;23.588;2022-07-10T09:10:25;94248.63;;;37.94;25.79
1926;BME280;964;42.606;23.588;2022-07-10T09:12:54;94242.53;;;38.63;25.31
1926;BME280;964;42.606;23.588;2022-07-10T09:15:23;94249.56;;;37.44;25.63
1926;BME280;964;42.606;23.588;2022-07-10T09:17:52;94240.94;;;38.47;25.34
1926;BME280;964;42.606;23.588;2022-07-10T09:20:31;94241.28;;;37.96;25.70
1926;BME280;964;42.606;23.588;2022-07-10T09:22:59;94240.94;;;38.47;24.49
1926;BME280;964;42.606;23.588;2022-07-10T09:25:30;94236.97;;;38.21;25.97
1926;BME280;964;42.606;23.588;2022-07-10T09:27:58;94236.75;;;38.74;25.10
1926;BME280;964;42.606;23.588;2022-07-10T09:30:34;94237.41;;;38.12;25.72
1926;BME280;964;42.606;23.588;2022-07-10T09:33:18;94239.47;;;38.33;25.79
1926;BME280;964;42.606;23.588;2022-07-10T09:35:58;94233.38;;;37.87;26.43
1926;BME280;964;42.606;23.588;2022-07-10T09:38:54;94240.94;;;37.87;26.21
1926;BME280;964;42.606;23.588;2022-07-10T09:41:27;94232.81;;;38.15;26.28
1926;BME280;964;42.606;23.588;2022-07-10T09:43:55;94241.16;;;38.02;25.89
1926;BME280;964;42.606;23.588;2022-07-10T09:46:24;94231.88;;;38.46;26.32
1926;BME280;964;42.606;23.588;2022-07-10T09:49:05;94228.91;;;38.65;25.95
1926;BME280;964;42.606;23.588;2022-07-10T09:51:35;94227.31;;;38.90;25.21
1926;BME280;964;42.606;23.588;2022-07-10T09:54:03;94230.28;;;38.51;25.46
1926;BME280;964;42.606;23.588;2022-07-10T09:56:37;94237.34;;;39.01;24.32
1926;BME280;964;42.606;23.588;2022-07-10T09:59:08;94217.03;;;39.55;24.19
1926;BME280;964;42.606;23.588;2022-07-10T10:01:36;94215.38;;;38.82;24.25
1926;BME280;964;42.606;23.588;2022-07-10T10:04:04;94216.66;;;38.81;24.49
1926;BME280;964;42.606;23.588;2022-07-10T10:06:33;94227.91;;;37.74;26.02
1926;BME280;964;42.606;23.588;2022-07-10T10:09:04;94220.25;;;38.48;25.43
1926;BME280;964;42.606;23.588;2022-07-10T10:11:33;94214.94;;;38.37;25.75
1926;BME280;964;42.606;23.588;2022-07-10T10:14:02;94208.38;;;40.09;25.25
1926;BME280;964;42.606;23.588;2022-07-10T10:16:30;94195.91;;;41.30;23.54
1926;BME280;964;42.606;23.588;2022-07-10T10:18:58;94196.22;;;41.64;22.56
1926;BME280;964;42.606;23.588;2022-07-10T10:21:44;94197.78;;;41.27;22.85
1926;BME280;964;42.606;23.588;2022-07-10T10:24:12;94188.38;;;42.18;22.66
1926;BME280;964;42.606;23.588;2022-07-10T10:26:41;94180.72;;;41.93;22.39
1926;BME280;964;42.606;23.588;2022-07-10T10:29:08;94206.16;;;39.29;24.68
1926;BME280;964;42.606;23.588;2022-07-10T10:31:36;94183.66;;;40.49;24.16
1926;BME280;964;42.606;23.588;2022-07-10T10:34:03;94180.72;;;42.33;21.45
1926;BME280;964;42.606;23.588;2022-07-10T10:36:47;94167.38;;;41.84;23.23
1926;BME280;964;42.606;23.588;2022-07-10T10:39:16;94190.63;;;39.69;23.95
1926;BME280;964;42.606;23.588;2022-07-10T10:41:48;94181.13;;;41.12;22.48
1926;BME280;964;42.606;23.588;2022-07-10T10:44:29;94183.31;;;41.13;22.95
1926;BME280;964;42.606;23.588;2022-07-10T10:47:05;94178.47;;;41.37;22.97
1926;BME280;964;42.606;23.588;2022-07-10T10:49:56;94186.09;;;40.53;23.36
1926;BME280;964;42.606;23.588;2022-07-10T10:52:25;94194.06;;;39.90;23.59
1926;BME280;964;42.606;23.588;2022-07-10T10:55:06;94187.34;;;40.22;23.54
1926;BME280;964;42.606;23.588;2022-07-10T10:57:41;94189.13;;;40.11;23.85
1926;BME280;964;42.606;23.588;2022-07-10T11:00:15;94191.53;;;40.07;23.62
1926;BME280;964;42.606;23.588;2022-07-10T11:03:20;94197.13;;;39.07;24.21
1926;BME280;964;42.606;23.588;2022-07-10T11:05:50;94190.88;;;39.14;24.00
1926;BME280;964;42.606;23.588;2022-07-10T11:08:41;94196.81;;;39.18;24.30
1926;BME280;964;42.606;23.588;2022-07-10T11:11:38;94197.59;;;38.78;24.11
1926;BME280;964;42.606;23.588;2022-07-10T11:14:08;94201.34;;;38.25;24.87
1926;BME280;964;42.606;23.588;2022-07-10T11:16:37;94186.81;;;38.46;24.70
1926;BME280;964;42.606;23.588;2022-07-10T11:19:45;94191.59;;;38.24;25.51
1926;BME280;964;42.606;23.588;2022-07-10T11:22:39;94192.53;;;37.80;25.82
1926;BME280;964;42.606;23.588;2022-07-10T11:25:23;94196.44;;;37.38;25.97
1926;BME280;964;42.606;23.588;2022-07-10T11:28:10;94194.50;;;37.32;26.45
1926;BME280;964;42.606;23.588;2022-07-10T11:30:47;94192.78;;;37.43;25.35
1926;BME280;964;42.606;23.588;2022-07-10T11:33:16;94197.06;;;37.30;26.75
1926;BME280;964;42.606;23.588;2022-07-10T11:35:47;94195.97;;;37.47;26.44
1926;BME280;964;42.606;23.588;2022-07-10T11:38:25;94198.75;;;37.20;27.38
1926;BME280;964;42.606;23.588;2022-07-10T11:40:53;94204.22;;;36.81;27.43
1926;BME280;964;42.606;23.588;2022-07-10T11:43:20;94204.81;;;37.06;27.36
1926;BME280;964;42.606;23.588;2022-07-10T11:45:49;94205.72;;;36.95;26.58
1926;BME280;964;42.606;23.588;2022-07-10T11:48:18;94215.09;;;37.05;26.42
1926;BME280;964;42.606;23.588;2022-07-10T11:50:45;94197.47;;;37.34;26.71
1926;BME280;964;42.606;23.588;2022-07-10T11:53:11;94206.66;;;37.56;26.11
1926;BME280;964;42.606;23.588;2022-07-10T11:55:38;94205.34;;;37.57;24.70
1926;BME280;964;42.606;23.588;2022-07-10T11:58:15;94206.53;;;38.08;24.57
1926;BME280;964;42.606;23.588;2022-07-10T12:10:41;94189.19;;;38.42;24.01
1926;BME280;964;42.606;23.588;2022-07-10T12:13:09;94198.19;;;38.21;24.39
1926;BME280;964;42.606;23.588;2022-07-10T12:15:39;94195.63;;;38.23;24.09
1926;BME280;964;42.606;23.588;2022-07-10T12:18:08;94195.34;;;37.67;24.71
1926;BME280;964;42.606;23.588;2022-07-10T12:20:35;94203.00;;;37.61;25.12
1926;BME280;964;42.606;23.588;2022-07-10T12:23:03;94196.16;;;37.75;25.34
1926;BME280;964;42.606;23.588;2022-07-10T12:25:30;94192.84;;;38.03;25.32
1926;BME280;964;42.606;23.588;2022-07-10T12:27:58;94201.00;;;37.48;25.52
1926;BME280;964;42.606;23.588;2022-07-10T12:30:43;94184.63;;;38.31;24.07
1926;BME280;964;42.606;23.588;2022-07-10T12:33:11;94199.06;;;37.56;25.13
1926;BME280;964;42.606;23.588;2022-07-10T12:35:49;94200.06;;;38.26;23.87
1926;BME280;964;42.606;23.588;2022-07-10T12:38:20;94197.22;;;37.98;24.87
1926;BME280;964;42.606;23.588;2022-07-10T12:40:47;94189.41;;;38.31;24.30
1926;BME280;964;42.606;23.588;2022-07-10T12:43:24;94180.50;;;38.24;24.33
1926;BME280;964;42.606;23.588;2022-07-10T12:46:15;94189.66;;;38.53;23.85
1926;BME280;964;42.606;23.588;2022-07-10T12:48:43;94176.44;;;39.08;23.29
1926;BME280;964;42.606;23.588;2022-07-10T12:51:20;94177.19;;;39.73;21.37
1926;BME280;964;42.606;23.588;2022-07-10T12:53:47;94169.09;;;39.98;21.69
1926;BME280;964;42.606;23.588;2022-07-10T12:56:29;94165.63;;;40.12;21.87
1926;BME280;964;42.606;23.588;2022-07-10T12:58:57;94173.72;;;39.16;24.09
1926;BME280;964;42.606;23.588;2022-07-10T13:01:26;94180.66;;;37.72;25.02
1926;BME280;964;42.606;23.588;2022-07-10T13:04:00;94183.84;;;37.23;25.51
1926;BME280;964;42.606;23.588;2022-07-10T13:06:28;94186.81;;;36.86;26.31
1926;BME280;964;42.606;23.588;2022-07-10T13:08:55;94192.75;;;36.45;26.18
1926;BME280;964;42.606;23.588;2022-07-10T13:11:22;94190.34;;;36.23;26.78
1926;BME280;964;42.606;23.588;2022-07-10T13:13:49;94194.16;;;36.20;27.15
1926;BME280;964;42.606;23.588;2022-07-10T13:16:16;94211.06;;;34.82;28.81
1926;BME280;964;42.606;23.588;2022-07-10T13:18:44;94198.25;;;34.55;28.52
1926;BME280;964;42.606;23.588;2022-07-10T13:21:11;94199.66;;;35.64;26.72
1926;BME280;964;42.606;23.588;2022-07-10T13:23:39;94190.38;;;35.42;27.15
1926;BME280;964;42.606;23.588;2022-07-10T13:26:06;94192.81;;;35.89;26.92
1926;BME280;964;42.606;23.588;2022-07-10T13:28:34;94191.94;;;35.57;27.24
1926;BME280;964;42.606;23.588;2022-07-10T13:31:01;94192.09;;;35.46;27.60
1926;BME280;964;42.606;23.588;2022-07-10T13:33:28;94189.03;;;35.73;27.08
1926;BME280;964;42.606;23.588;2022-07-10T13:35:59;94196.75;;;35.94;27.47
1926;BME280;964;42.606;23.588;2022-07-10T13:38:26;94192.78;;;36.26;26.75
1926;BME280;964;42.606;23.588;2022-07-10T13:40:53;94182.63;;;36.34;27.35
1926;BME280;964;42.606;23.588;2022-07-10T13:43:19;94189.03;;;36.43;26.93
1926;BME280;964;42.606;23.588;2022-07-10T13:45:46;94184.03;;;35.72;28.03
1926;BME280;964;42.606;23.588;2022-07-10T13:48:15;94183.84;;;36.20;27.06
1926;BME280;964;42.606;23.588;2022-07-10T13:50:43;94194.97;;;36.15;27.90
1926;BME280;964;42.606;23.588;2022-07-10T13:53:13;94198.56;;;35.91;28.38
1926;BME280;964;42.606;23.588;2022-07-10T13:55:40;94188.03;;;36.08;27.95
1926;BME280;964;42.606;23.588;2022-07-10T13:58:07;94183.72;;;35.94;27.93
1926;BME280;964;42.606;23.588;2022-07-10T14:00:35;94183.22;;;37.17;26.38
1926;BME280;964;42.606;23.588;2022-07-10T14:03:02;94181.41;;;37.20;26.51
1926;BME280;964;42.606;23.588;2022-07-10T14:05:29;94189.81;;;37.01;27.62
1926;BME280;964;42.606;23.588;2022-07-10T14:07:56;94184.84;;;37.52;26.31
1926;BME280;964;42.606;23.588;2022-07-10T14:10:24;94183.13;;;37.62;26.50
1926;BME280;964;42.606;23.588;2022-07-10T14:12:52;94183.44;;;37.32;26.71